Gearhart, Oregon
Current Conditions -  °F | °C
As of 5:21 PM on Saturday 25 Oct 2014 (Local Time) from KAST Reporting Station
Light Rain Light Rain  
Wind Chill: 13°   Ceiling: 1700
Heat Index: 13°   Visibility: 8mi
Dew Point: 10°   Wind: 23mph
Humidity: 83%   Direction: 270°W
Pressure: 29.43"   Gusts: 41mph
Location:  45.8905°N, 123.667°W
Report Text: KAST 260021Z AUTO 27020G36KT 8SM -RA FEW011 BKN017 OVC037 13/10 A2943 RMK AO2 PK WND 26036/0012 PRESRR P0002 T01280100
Loading
Personal Weather Stations






























Interactive Weather Map
Tropical Storm Tracking
New forecast layout! Learn more

10-Day Weather Forecast

Advertisements
Track Severe Weather on mobile